Cedar City Regional Airport
KCDC : rendu visible

Aérodrome :











RETROUVEZ-NOUS SUR...

 
LOGIN :

S'inscrire | Disclaimer

   EN    FR    IT 

 









Légende :    VFR   VFR Marginal   IFR   IFR Intensif   IFR Très Intensif
Visi : 
Plafond : 
>= 8 km
>= 3000ft
5 à 8 km
1000 à 3000 ft
1500m à 5 km
500 à 1000 ft
800 à 1500m
200 à 500 ft
< 800m
< 200 ft
Symboles :   Orages  Brouillard  Fortes neiges  Fortes précipitations  Vent > 20 kt






- Altitude de l'aérodrome : 5622 ft
- Code IATA : CDC


KCDC - Cedar City Regional

DERNIER METAR :
  • 231653Z AUTO 03004KT 1/4SM FZFG VV002 M01/M01 A3013 RMK AO2 SLP210 T10061006

METARs EXPIRÉS :
  • 231618Z AUTO 05006KT 1/4SM FZFG VV002 M01/M01 A3011 RMK AO2 T10111011
  • 231605Z AUTO 07006KT 1/2SM FZFG VV002 M01/M01 A3010 RMK AO2 T10111011
  • 231553Z AUTO 08005KT 1/4SM FZFG VV002 M01/M01 A3010 RMK AO2 SLP203 T10111011
  • 231531Z AUTO 07003KT 1/2SM FZFG OVC002 M01/M02 A3008 RMK AO2 T10111017
  • 231500Z AUTO 31004KT 1SM BR VV002 M02/M02 A3006 RMK AO2 T10171017
  • 231453Z AUTO 30005KT 1/4SM FZFG BKN002 OVC060 M02/M02 A3005 RMK AO2 SLP187 60001 T10171017 53018
  • 231436Z AUTO 30005KT 1/4SM FZFG SCT002 OVC060 M03/M03 A3004 RMK AO2 T10281028

TAF KCDC
Valide du 23 à 18h jusqu'au 24 à 18h UTC


231726Z 2318/2418 VRB03KT 1/4SM FZFG VV002
FM231900 35006KT P6SM SCT060 SCT120
FM240300 17006KT P6SM SCT150
FM241500 01006KT P6SM SCT150



MET'MAP, la Météo Aéronautique d'un coup d'oeil ! - Copyright ORBIFLY Décembre 2007 - Disclaimer

ORBIFLY MET'MAP TEAM :

Programmation & Développement : Alexandra Zaïnal
Sur une idée originale de : Baudouin d'Aumeries
Assistance à la programmation : Marc-Olivier Méhu
Soutien technique & logistique : Manuel Goepfert

Contact : metmap@orbifly.com




SOURCES & CREDITS :

   NOAA       Earth
Advisory